NCAR-RAP Real-Time Weather Data

Output produced by METARs form (19 November 2018  11:34 UTC)
found at http://weather.rap.ucar.edu/surface/
 
Conditions at: KLEE observed 19 November 2018  10:53 UTC
Temperature: 16.7°C (62°F)
Dewpoint: 16.1°C (61°F) [RH = 96%]
Pressure (altimeter): 30.12 inches Hg (1020.1 mb)
[Sea-level pressure: 1019.7 mb]
Winds: from the NW (320 degrees) at 3 MPH (3 knots; 1.6 m/s)
Visibility: 10 or more miles (16+ km)
Ceiling: at least 12,000 feet AGL
Clouds: sky clear below 12,000 feet AGL
Present Weather: automated observation with no human augmentation;
there may or may not be significant weather present at this time
KLEE 191053Z AUTO 32003KT 10SM CLR 17/16 A3012 RMK AO2 SLP197 T01670161

Conditions at: KLEE observed 19 November 2018  09:53 UTC
Temperature: 16.7°C (62°F)
Dewpoint: 16.1°C (61°F) [RH = 96%]
Pressure (altimeter): 30.10 inches Hg (1019.4 mb)
[Sea-level pressure: 1019.3 mb]
Winds: from the NNW (340 degrees) at 3 MPH (3 knots; 1.6 m/s)
Visibility: 10 or more miles (16+ km)
Ceiling: at least 12,000 feet AGL
Clouds: sky clear below 12,000 feet AGL
Present Weather: automated observation with no human augmentation;
there may or may not be significant weather present at this time
KLEE 190953Z AUTO 34003KT 10SM CLR 17/16 A3010 RMK AO2 SLP193 T01670161

Conditions at: KLEE observed 19 November 2018  08:53 UTC
Temperature: 16.7°C (62°F)
Dewpoint: 16.1°C (61°F) [RH = 96%]
Pressure (altimeter): 30.11 inches Hg (1019.7 mb)
[Sea-level pressure: 1019.3 mb]
Winds: from the NNW (340 degrees) at 3 MPH (3 knots; 1.6 m/s)
Visibility: 10 or more miles (16+ km)
Ceiling: at least 12,000 feet AGL
Clouds: few clouds at 3100 feet AGL
scattered clouds at 8000 feet AGL
Present Weather: automated observation with no human augmentation;
there may or may not be significant weather present at this time
KLEE 190853Z AUTO 34003KT 10SM FEW031 SCT080 17/16 A3011 RMK AO2 SLP193 T01670161 55003

Conditions at: KLEE observed 19 November 2018  07:53 UTC
Temperature: 16.7°C (62°F)
Dewpoint: 16.7°C (62°F) [RH = 100%]
Pressure (altimeter): 30.10 inches Hg (1019.4 mb)
[Sea-level pressure: 1019.2 mb]
Winds: calm
Visibility: 10 or more miles (16+ km)
Ceiling: 7000 feet AGL
Clouds: overcast cloud deck at 7000 feet AGL
Present Weather: automated observation with no human augmentation;
there may or may not be significant weather present at this time
KLEE 190753Z AUTO 00000KT 10SM OVC070 17/17 A3010 RMK AO2 SLP192 T01670167

Conditions at: KLEE observed 19 November 2018  06:53 UTC
Temperature: 17.2°C (63°F)
Dewpoint: 16.7°C (62°F) [RH = 97%]
Pressure (altimeter): 30.11 inches Hg (1019.7 mb)
[Sea-level pressure: 1019.3 mb]
Winds: calm
Visibility: 10 or more miles (16+ km)
Ceiling: at least 12,000 feet AGL
Clouds: scattered clouds at 8000 feet AGL
Present Weather: automated observation with no human augmentation;
there may or may not be significant weather present at this time
KLEE 190653Z AUTO 00000KT 10SM SCT080 17/17 A3011 RMK AO2 SLP193 T01720167

Conditions at: KLEE observed 19 November 2018  05:53 UTC
Temperature: 17.2°C (63°F)
Dewpoint: 17.2°C (63°F) [RH = 100%]
Pressure (altimeter): 30.12 inches Hg (1020.1 mb)
[Sea-level pressure: 1019.6 mb]
Winds: calm
Visibility: 10 or more miles (16+ km)
Ceiling: 6500 feet AGL
Clouds: few clouds at 2500 feet AGL
few clouds at 3900 feet AGL
overcast cloud deck at 6500 feet AGL
Present Weather: automated observation with no human augmentation;
there may or may not be significant weather present at this time
KLEE 190553Z AUTO 00000KT 10SM FEW025 FEW039 OVC065 17/17 A3012 RMK AO2 SLP196 T01720172 10206 20172 57009

Conditions at: KLEE observed 19 November 2018  04:53 UTC
Temperature: 17.2°C (63°F)
Dewpoint: 16.7°C (62°F) [RH = 97%]
Pressure (altimeter): 30.12 inches Hg (1020.1 mb)
[Sea-level pressure: 1019.8 mb]
Winds: from the NNE (30 degrees) at 3 MPH (3 knots; 1.6 m/s)
Visibility: 10 or more miles (16+ km)
Ceiling: at least 12,000 feet AGL
Clouds: few clouds at 3900 feet AGL
Present Weather: automated observation with no human augmentation;
there may or may not be significant weather present at this time
KLEE 190453Z AUTO 03003KT 10SM FEW039 17/17 A3012 RMK AO2 SLP198 T01720167 402610128

Conditions at: KLEE observed 19 November 2018  03:53 UTC
Temperature: 18.3°C (65°F)
Dewpoint: 17.2°C (63°F) [RH = 93%]
Pressure (altimeter): 30.14 inches Hg (1020.7 mb)
[Sea-level pressure: 1020.3 mb]
Winds: from the NE (40 degrees) at 3 MPH (3 knots; 1.6 m/s)
Visibility: 10 or more miles (16+ km)
Ceiling: at least 12,000 feet AGL
Clouds: few clouds at 3200 feet AGL
scattered clouds at 7500 feet AGL
Present Weather: automated observation with no human augmentation;
there may or may not be significant weather present at this time
KLEE 190353Z AUTO 04003KT 10SM FEW032 SCT075 18/17 A3014 RMK AO2 SLP203 T01830172

Conditions at: KLEE observed 19 November 2018  02:53 UTC
Temperature: 18.9°C (66°F)
Dewpoint: 17.2°C (63°F) [RH = 90%]
Pressure (altimeter): 30.14 inches Hg (1020.7 mb)
[Sea-level pressure: 1020.5 mb]
Winds: calm
Visibility: 10 or more miles (16+ km)
Ceiling: 3600 feet AGL
Clouds: scattered clouds at 3000 feet AGL
broken clouds at 3600 feet AGL
overcast cloud deck at 4900 feet AGL
Present Weather: automated observation with no human augmentation;
there may or may not be significant weather present at this time
KLEE 190253Z AUTO 00000KT 10SM SCT030 BKN036 OVC049 19/17 A3014 RMK AO2 SLP205 T01890172 51006

Conditions at: KLEE observed 19 November 2018  01:53 UTC
Temperature: 18.3°C (65°F)
Dewpoint: 16.7°C (62°F) [RH = 90%]
Pressure (altimeter): 30.14 inches Hg (1020.7 mb)
[Sea-level pressure: 1020.5 mb]
Winds: from the NE (40 degrees) at 6 MPH (5 knots; 2.6 m/s)
Visibility: 10 or more miles (16+ km)
Ceiling: at least 12,000 feet AGL
Clouds: sky clear below 12,000 feet AGL
Present Weather: automated observation with no human augmentation;
there may or may not be significant weather present at this time
KLEE 190153Z AUTO 04005KT 10SM CLR 18/17 A3014 RMK AO2 SLP205 T01830167

Conditions at: KLEE observed 19 November 2018  00:53 UTC
Temperature: 20.0°C (68°F)
Dewpoint: 15.6°C (60°F) [RH = 76%]
Pressure (altimeter): 30.13 inches Hg (1020.4 mb)
[Sea-level pressure: 1020.2 mb]
Winds: from the ENE (70 degrees) at 3 MPH (3 knots; 1.6 m/s)
Visibility: 10 or more miles (16+ km)
Ceiling: at least 12,000 feet AGL
Clouds: sky clear below 12,000 feet AGL
Present Weather: automated observation with no human augmentation;
there may or may not be significant weather present at this time
KLEE 190053Z AUTO 07003KT 10SM CLR 20/16 A3013 RMK AO2 SLP202 T02000156

Conditions at: KLEE observed 18 November 2018  23:53 UTC
Temperature: 19.4°C (67°F)
Dewpoint: 13.9°C (57°F) [RH = 71%]
Pressure (altimeter): 30.12 inches Hg (1020.1 mb)
[Sea-level pressure: 1019.9 mb]
Winds: from the ENE (60 degrees) at 6 MPH (5 knots; 2.6 m/s)
Visibility: 10 or more miles (16+ km)
Ceiling: at least 12,000 feet AGL
Clouds: few clouds at 5500 feet AGL
Present Weather: automated observation with no human augmentation;
there may or may not be significant weather present at this time
KLEE 182353Z AUTO 06005KT 10SM FEW055 19/14 A3012 RMK AO2 SLP199 T01940139 10261 20189 53005

Conditions at: KLEE observed 18 November 2018  22:53 UTC
Temperature: 21.1°C (70°F)
Dewpoint: 13.9°C (57°F) [RH = 63%]
Pressure (altimeter): 30.11 inches Hg (1019.7 mb)
[Sea-level pressure: 1019.4 mb]
Winds: calm
Visibility: 10 or more miles (16+ km)
Ceiling: at least 12,000 feet AGL
Clouds: few clouds at 8000 feet AGL
Present Weather: no significant weather observed at this time
KLEE 182253Z 00000KT 10SM FEW080 21/14 A3011 RMK AO2 SLP194 T02110139

Conditions at: KLEE observed 18 November 2018  21:53 UTC
Temperature: 24.4°C (76°F)
Dewpoint: 12.2°C (54°F) [RH = 47%]
Pressure (altimeter): 30.11 inches Hg (1019.7 mb)
[Sea-level pressure: 1019.3 mb]
Winds: calm
Visibility: 10 or more miles (16+ km)
Ceiling: at least 12,000 feet AGL
Clouds: sky clear below 12,000 feet AGL
Present Weather: no significant weather observed at this time
KLEE 182153Z 00000KT 10SM CLR 24/12 A3011 RMK AO2 SLP193 T02440122

Conditions at: KLEE observed 18 November 2018  20:53 UTC
Temperature: 25.6°C (78°F)
Dewpoint: 12.2°C (54°F) [RH = 43%]
Pressure (altimeter): 30.11 inches Hg (1019.7 mb)
[Sea-level pressure: 1019.4 mb]
Winds: calm
Visibility: 10 or more miles (16+ km)
Ceiling: at least 12,000 feet AGL
Clouds: sky clear below 12,000 feet AGL
Present Weather: no significant weather observed at this time
KLEE 182053Z 00000KT 10SM CLR 26/12 A3011 RMK AO2 SLP194 T02560122 56015

Conditions at: KLEE observed 18 November 2018  19:53 UTC
Temperature: 25.6°C (78°F)
Dewpoint: 12.8°C (55°F) [RH = 45%]
Pressure (altimeter): 30.11 inches Hg (1019.7 mb)
[Sea-level pressure: 1019.4 mb]
Winds: from the W (270 degrees) at 3 MPH (3 knots; 1.6 m/s)
Visibility: 10 or more miles (16+ km)
Ceiling: at least 12,000 feet AGL
Clouds: sky clear below 12,000 feet AGL
Present Weather: no significant weather observed at this time
KLEE 181953Z 27003KT 10SM CLR 26/13 A3011 RMK AO2 SLP194 T02560128

Conditions at: KLEE observed 18 November 2018  18:53 UTC
Temperature: 24.4°C (76°F)
Dewpoint: 13.9°C (57°F) [RH = 52%]
Pressure (altimeter): 30.12 inches Hg (1020.1 mb)
[Sea-level pressure: 1019.9 mb]
Winds: from the W (260 degrees) at 5 MPH (4 knots; 2.1 m/s)
Visibility: 10 or more miles (16+ km)
Ceiling: at least 12,000 feet AGL
Clouds: sky clear below 12,000 feet AGL
Present Weather: no significant weather observed at this time
KLEE 181853Z 26004KT 10SM CLR 24/14 A3012 RMK AO2 SLP199 T02440139

Conditions at: KLEE observed 18 November 2018  17:53 UTC
Temperature: 24.4°C (76°F)
Dewpoint: 16.7°C (62°F) [RH = 62%]
Pressure (altimeter): 30.15 inches Hg (1021.1 mb)
[Sea-level pressure: 1020.9 mb]
Winds: from the S (180 degrees) at 6 MPH (5 knots; 2.6 m/s)
Visibility: 10 or more miles (16+ km)
Ceiling: at least 12,000 feet AGL
Clouds: sky clear below 12,000 feet AGL
Present Weather: no significant weather observed at this time
KLEE 181753Z 18005KT 10SM CLR 24/17 A3015 RMK AO2 SLP209 T02440167 10256 20133 58017

Conditions at: KLEE observed 18 November 2018  16:53 UTC
Temperature: 23.3°C (74°F)
Dewpoint: 16.1°C (61°F) [RH = 64%]
Pressure (altimeter): 30.18 inches Hg (1022.1 mb)
[Sea-level pressure: 1021.9 mb]
Winds: from the N (360 degrees) at 3 MPH (3 knots; 1.6 m/s)
Visibility: 10 or more miles (16+ km)
Ceiling: at least 12,000 feet AGL
Clouds: sky clear below 12,000 feet AGL
Present Weather: no significant weather observed at this time
KLEE 181653Z 36003KT 10SM CLR 23/16 A3018 RMK AO2 SLP219 T02330161

Conditions at: KLEE observed 18 November 2018  15:53 UTC
Temperature: 22.2°C (72°F)
Dewpoint: 16.7°C (62°F) [RH = 71%]
Pressure (altimeter): 30.20 inches Hg (1022.8 mb)
[Sea-level pressure: 1022.4 mb]
Winds: from the N (360 degrees) at 6 MPH (5 knots; 2.6 m/s)
Visibility: 10 or more miles (16+ km)
Ceiling: at least 12,000 feet AGL
Clouds: sky clear below 12,000 feet AGL
Present Weather: no significant weather observed at this time
KLEE 181553Z 36005KT 10SM CLR 22/17 A3020 RMK AO2 SLP224 T02220167

Conditions at: KLEE observed 18 November 2018  14:53 UTC
Temperature: 20.6°C (69°F)
Dewpoint: 16.1°C (61°F) [RH = 75%]
Pressure (altimeter): 30.20 inches Hg (1022.8 mb)
[Sea-level pressure: 1022.6 mb]
Winds: from the NNE (30 degrees) at 7 MPH (6 knots; 3.1 m/s)
Visibility: 10 or more miles (16+ km)
Ceiling: at least 12,000 feet AGL
Clouds: sky clear below 12,000 feet AGL
Present Weather: no significant weather observed at this time
KLEE 181453Z 03006KT 10SM CLR 21/16 A3020 RMK AO2 SLP226 T02060161 51010

Conditions at: KLEE observed 18 November 2018  13:53 UTC
Temperature: 16.7°C (62°F)
Dewpoint: 16.1°C (61°F) [RH = 96%]
Pressure (altimeter): 30.20 inches Hg (1022.8 mb)
[Sea-level pressure: 1022.5 mb]
Winds: from the N (360 degrees) at 5 MPH (4 knots; 2.1 m/s)
Visibility: 6 miles (10 km)
Ceiling: at least 12,000 feet AGL
Clouds: scattered clouds at 200 feet AGL
Present Weather: BR  (mist)
KLEE 181353Z 36004KT 6SM BR SCT002 17/16 A3020 RMK AO2 SLP225 T01670161

Conditions at: KLEE observed 18 November 2018  13:44 UTC
Temperature: 15.6°C (60°F)
Dewpoint: 15.6°C (60°F) [RH = 100%]
Pressure (altimeter): 30.20 inches Hg (1022.8 mb)
Winds: from the N (10 degrees) at 6 MPH (5 knots; 2.6 m/s)
Visibility: 2.00 miles (3.22 km)
Ceiling: 200 feet AGL
Clouds: overcast cloud deck at 200 feet AGL
Present Weather: BR  (mist)
KLEE 181344Z 01005KT 2SM BR OVC002 16/16 A3020 RMK AO2 T01560156

Conditions at: KLEE observed 18 November 2018  13:08 UTC
Temperature: 14.4°C (58°F)
Dewpoint: 14.4°C (58°F) [RH = 100%]
Pressure (altimeter): 30.19 inches Hg (1022.4 mb)
Winds: from the N (350 degrees) at 6 MPH (5 knots; 2.6 m/s)
Visibility: 0.25 miles (0.40 km)
Ceiling: indefinite ceiling with vertical visibility of 200 feet AGL
Clouds: obscured sky
Present Weather: FG  (fog)
KLEE 181308Z 35005KT 1/4SM FG VV002 14/14 A3019 RMK AO2 T01440144

Conditions at: KLEE observed 18 November 2018  12:53 UTC
Temperature: 14.4°C (58°F)
Dewpoint: 14.4°C (58°F) [RH = 100%]
Pressure (altimeter): 30.18 inches Hg (1022.1 mb)
[Sea-level pressure: 1022.0 mb]
Winds: from the N (360 degrees) at 5 MPH (4 knots; 2.1 m/s)
Visibility: 0.50 miles (0.80 km)
Ceiling: indefinite ceiling with vertical visibility of 200 feet AGL
Clouds: obscured sky
Present Weather: FG  (fog)
KLEE 181253Z 36004KT 1/2SM FG VV002 14/14 A3018 RMK AO2 SLP220 T01440144

Conditions at: KLEE observed 18 November 2018  12:28 UTC
Temperature: 13.9°C (57°F)
Dewpoint: 13.9°C (57°F) [RH = 100%]
Pressure (altimeter): 30.18 inches Hg (1022.1 mb)
Winds: from the N (10 degrees) at 6 MPH (5 knots; 2.6 m/s)
Visibility: 0.50 miles (0.80 km)
Ceiling: 300 feet AGL
Clouds: overcast cloud deck at 300 feet AGL
Present Weather: FG  (fog)
KLEE 181228Z 01005KT 1/2SM FG OVC003 14/14 A3018 RMK AO2 T01390139

Conditions at: KLEE observed 18 November 2018  12:13 UTC
Temperature: 13.3°C (56°F)
Dewpoint: 13.3°C (56°F) [RH = 100%]
Pressure (altimeter): 30.18 inches Hg (1022.1 mb)
Winds: from the N (350 degrees) at 5 MPH (4 knots; 2.1 m/s)
Visibility: 5 miles (8 km)
Ceiling: 300 feet AGL
Clouds: broken clouds at 300 feet AGL
Present Weather: BR  (mist)
KLEE 181213Z 35004KT 5SM BR BKN003 13/13 A3018 RMK AO2 T01330133

Conditions at: KLEE observed 18 November 2018  12:00 UTC
Temperature: 13.3°C (56°F)
Dewpoint: 12.8°C (55°F) [RH = 97%]
Pressure (altimeter): 30.18 inches Hg (1022.1 mb)
Winds: from the NNW (340 degrees) at 5 MPH (4 knots; 2.1 m/s)
Visibility: 5 miles (8 km)
Ceiling: at least 12,000 feet AGL
Clouds: few clouds at 300 feet AGL
Present Weather: BR  (mist)
KLEE 181200Z 34004KT 5SM BR FEW003 13/13 A3018 RMK AO2 T01330128

Conditions at: KLEE observed 18 November 2018  11:53 UTC
Temperature: 13.3°C (56°F)
Dewpoint: 13.3°C (56°F) [RH = 100%]
Pressure (altimeter): 30.17 inches Hg (1021.8 mb)
[Sea-level pressure: 1021.6 mb]
Winds: from the NNW (340 degrees) at 5 MPH (4 knots; 2.1 m/s)
Visibility: 6 miles (10 km)
Ceiling: at least 12,000 feet AGL
Clouds: sky clear below 12,000 feet AGL
Present Weather: BR  (mist)
KLEE 181153Z 34004KT 6SM BR CLR 13/13 A3017 RMK AO2 SLP216 T01330133 10144 20128 53010

Conditions at: KLEE observed 18 November 2018  10:53 UTC
Temperature: 13.3°C (56°F)
Dewpoint: 13.3°C (56°F) [RH = 100%]
Pressure (altimeter): 30.15 inches Hg (1021.1 mb)
[Sea-level pressure: 1020.8 mb]
Winds: from the N (350 degrees) at 3 MPH (3 knots; 1.6 m/s)
Visibility: 8 miles (13 km)
Ceiling: at least 12,000 feet AGL
Clouds: sky clear below 12,000 feet AGL
Present Weather: automated observation with no human augmentation;
there may or may not be significant weather present at this time
KLEE 181053Z AUTO 35003KT 8SM CLR 13/13 A3015 RMK AO2 SLP208 T01330133

Conditions at: KLEE observed 18 November 2018  09:53 UTC
Temperature: 13.3°C (56°F)
Dewpoint: 13.3°C (56°F) [RH = 100%]
Pressure (altimeter): 30.15 inches Hg (1021.1 mb)
[Sea-level pressure: 1020.7 mb]
Winds: from the N (10 degrees) at 6 MPH (5 knots; 2.6 m/s)
Visibility: 8 miles (13 km)
Ceiling: at least 12,000 feet AGL
Clouds: sky clear below 12,000 feet AGL
Present Weather: automated observation with no human augmentation;
there may or may not be significant weather present at this time
KLEE 180953Z AUTO 01005KT 8SM CLR 13/13 A3015 RMK AO2 SLP207 T01330133

Conditions at: KLEE observed 18 November 2018  08:53 UTC
Temperature: 13.3°C (56°F)
Dewpoint: 13.3°C (56°F) [RH = 100%]
Pressure (altimeter): 30.14 inches Hg (1020.7 mb)
[Sea-level pressure: 1020.5 mb]
Winds: from the NW (320 degrees) at 3 MPH (3 knots; 1.6 m/s)
Visibility: 8 miles (13 km)
Ceiling: at least 12,000 feet AGL
Clouds: sky clear below 12,000 feet AGL
Present Weather: automated observation with no human augmentation;
there may or may not be significant weather present at this time
KLEE 180853Z AUTO 32003KT 8SM CLR 13/13 A3014 RMK AO2 SLP205 T01330133 56004

Conditions at: KLEE observed 18 November 2018  07:53 UTC
Temperature: 14.4°C (58°F)
Dewpoint: 13.9°C (57°F) [RH = 97%]
Pressure (altimeter): 30.14 inches Hg (1020.7 mb)
[Sea-level pressure: 1020.6 mb]
Winds: from the N (350 degrees) at 6 MPH (5 knots; 2.6 m/s)
Visibility: 10 or more miles (16+ km)
Ceiling: at least 12,000 feet AGL
Clouds: sky clear below 12,000 feet AGL
Present Weather: automated observation with no human augmentation;
there may or may not be significant weather present at this time
KLEE 180753Z AUTO 35005KT 10SM CLR 14/14 A3014 RMK AO2 SLP206 T01440139

Conditions at: KLEE observed 18 November 2018  06:53 UTC
Temperature: 14.4°C (58°F)
Dewpoint: 13.9°C (57°F) [RH = 97%]
Pressure (altimeter): 30.15 inches Hg (1021.1 mb)
[Sea-level pressure: 1020.7 mb]
Winds: from the N (10 degrees) at 8 MPH (7 knots; 3.6 m/s)
Visibility: 10 or more miles (16+ km)
Ceiling: at least 12,000 feet AGL
Clouds: sky clear below 12,000 feet AGL
Present Weather: automated observation with no human augmentation;
there may or may not be significant weather present at this time
KLEE 180653Z AUTO 01007KT 10SM CLR 14/14 A3015 RMK AO2 SLP207 T01440139

Conditions at: KLEE observed 18 November 2018  05:53 UTC
Temperature: 14.4°C (58°F)
Dewpoint: 13.9°C (57°F) [RH = 97%]
Pressure (altimeter): 30.15 inches Hg (1021.1 mb)
[Sea-level pressure: 1021.0 mb]
Winds: from the N (360 degrees) at 7 MPH (6 knots; 3.1 m/s)
Visibility: 10 or more miles (16+ km)
Ceiling: at least 12,000 feet AGL
Clouds: sky clear below 12,000 feet AGL
Present Weather: automated observation with no human augmentation;
there may or may not be significant weather present at this time
KLEE 180553Z AUTO 36006KT 10SM CLR 14/14 A3015 RMK AO2 SLP210 T01440139 10178 20139 56007

Conditions at: KLEE observed 18 November 2018  04:53 UTC
Temperature: 15.0°C (59°F)
Dewpoint: 14.4°C (58°F) [RH = 96%]
Pressure (altimeter): 30.16 inches Hg (1021.4 mb)
[Sea-level pressure: 1021.0 mb]
Winds: from the N (10 degrees) at 7 MPH (6 knots; 3.1 m/s)
Visibility: 10 or more miles (16+ km)
Ceiling: at least 12,000 feet AGL
Clouds: sky clear below 12,000 feet AGL
Present Weather: automated observation with no human augmentation;
there may or may not be significant weather present at this time
KLEE 180453Z AUTO 01006KT 10SM CLR 15/14 A3016 RMK AO2 SLP210 T01500144 402330072

Conditions at: KLEE observed 18 November 2018  03:53 UTC
Temperature: 15.0°C (59°F)
Dewpoint: 13.9°C (57°F) [RH = 93%]
Pressure (altimeter): 30.16 inches Hg (1021.4 mb)
[Sea-level pressure: 1021.1 mb]
Winds: from the NE (40 degrees) at 8 MPH (7 knots; 3.6 m/s)
Visibility: 10 or more miles (16+ km)
Ceiling: at least 12,000 feet AGL
Clouds: sky clear below 12,000 feet AGL
Present Weather: automated observation with no human augmentation;
there may or may not be significant weather present at this time
KLEE 180353Z AUTO 04007KT 10SM CLR 15/14 A3016 RMK AO2 SLP211 T01500139

Conditions at: KLEE observed 18 November 2018  02:53 UTC
Temperature: 15.6°C (60°F)
Dewpoint: 13.9°C (57°F) [RH = 90%]
Pressure (altimeter): 30.18 inches Hg (1022.1 mb)
[Sea-level pressure: 1021.7 mb]
Winds: from the NE (40 degrees) at 8 MPH (7 knots; 3.6 m/s)
Visibility: 10 or more miles (16+ km)
Ceiling: at least 12,000 feet AGL
Clouds: sky clear below 12,000 feet AGL
Present Weather: automated observation with no human augmentation;
there may or may not be significant weather present at this time
KLEE 180253Z AUTO 04007KT 10SM CLR 16/14 A3018 RMK AO2 SLP217 T01560139 53003

Conditions at: KLEE observed 18 November 2018  01:53 UTC
Temperature: 15.6°C (60°F)
Dewpoint: 13.9°C (57°F) [RH = 90%]
Pressure (altimeter): 30.18 inches Hg (1022.1 mb)
[Sea-level pressure: 1021.8 mb]
Winds: from the NE (40 degrees) at 7 MPH (6 knots; 3.1 m/s)
Visibility: 10 or more miles (16+ km)
Ceiling: at least 12,000 feet AGL
Clouds: sky clear below 12,000 feet AGL
Present Weather: automated observation with no human augmentation;
there may or may not be significant weather present at this time
KLEE 180153Z AUTO 04006KT 10SM CLR 16/14 A3018 RMK AO2 SLP218 T01560139

Conditions at: KLEE observed 18 November 2018  00:53 UTC
Temperature: 17.2°C (63°F)
Dewpoint: 14.4°C (58°F) [RH = 84%]
Pressure (altimeter): 30.16 inches Hg (1021.4 mb)
[Sea-level pressure: 1021.3 mb]
Winds: from the ENE (60 degrees) at 10 MPH (9 knots; 4.7 m/s)
Visibility: 10 or more miles (16+ km)
Ceiling: at least 12,000 feet AGL
Clouds: sky clear below 12,000 feet AGL
Present Weather: automated observation with no human augmentation;
there may or may not be significant weather present at this time
KLEE 180053Z AUTO 06009KT 10SM CLR 17/14 A3016 RMK AO2 SLP213 T01720144

Conditions at: KLEE observed 17 November 2018  23:53 UTC
Temperature: 17.8°C (64°F)
Dewpoint: 13.3°C (56°F) [RH = 75%]
Pressure (altimeter): 30.17 inches Hg (1021.8 mb)
[Sea-level pressure: 1021.4 mb]
Winds: from the NNE (30 degrees) at 5 MPH (4 knots; 2.1 m/s)
Visibility: 10 or more miles (16+ km)
Ceiling: at least 12,000 feet AGL
Clouds: sky clear below 12,000 feet AGL
Present Weather: automated observation with no human augmentation;
there may or may not be significant weather present at this time
KLEE 172353Z AUTO 03004KT 10SM CLR 18/13 A3017 RMK AO2 SLP214 T01780133 10233 20178 53012

Conditions at: KLEE observed 17 November 2018  22:53 UTC
Temperature: 18.9°C (66°F)
Dewpoint: 12.2°C (54°F) [RH = 65%]
Pressure (altimeter): 30.15 inches Hg (1021.1 mb)
[Sea-level pressure: 1021.0 mb]
Winds: from the NNE (20 degrees) at 7 MPH (6 knots; 3.1 m/s)
Visibility: 10 or more miles (16+ km)
Ceiling: at least 12,000 feet AGL
Clouds: sky clear below 12,000 feet AGL
Present Weather: no significant weather observed at this time
KLEE 172253Z 02006KT 10SM CLR 19/12 A3015 RMK AO2 SLP210 T01890122

Conditions at: KLEE observed 17 November 2018  21:53 UTC
Temperature: 21.7°C (71°F)
Dewpoint: 10.6°C (51°F) [RH = 49%]
Pressure (altimeter): 30.14 inches Hg (1020.7 mb)
[Sea-level pressure: 1020.3 mb]
Winds: from the NE (40 degrees) at 7 MPH (6 knots; 3.1 m/s)
Visibility: 10 or more miles (16+ km)
Ceiling: at least 12,000 feet AGL
Clouds: sky clear below 12,000 feet AGL
Present Weather: no significant weather observed at this time
KLEE 172153Z 04006KT 10SM CLR 22/11 A3014 RMK AO2 SLP203 T02170106

Conditions at: KLEE observed 17 November 2018  20:53 UTC
Temperature: 22.8°C (73°F)
Dewpoint: 10.6°C (51°F) [RH = 46%]
Pressure (altimeter): 30.13 inches Hg (1020.4 mb)
[Sea-level pressure: 1020.1 mb]
Winds: from the NE (50 degrees) at 5 MPH (4 knots; 2.1 m/s)
Visibility: 10 or more miles (16+ km)
Ceiling: at least 12,000 feet AGL
Clouds: sky clear below 12,000 feet AGL
Present Weather: no significant weather observed at this time
KLEE 172053Z 05004KT 10SM CLR 23/11 A3013 RMK AO2 SLP201 T02280106 56007

Conditions at: KLEE observed 17 November 2018  19:53 UTC
Temperature: 22.8°C (73°F)
Dewpoint: 11.1°C (52°F) [RH = 48%]
Pressure (altimeter): 30.13 inches Hg (1020.4 mb)
[Sea-level pressure: 1020.2 mb]
Winds: from the SSE (160 degrees) at 6 MPH (5 knots; 2.6 m/s)
Visibility: 10 or more miles (16+ km)
Ceiling: at least 12,000 feet AGL
Clouds: sky clear below 12,000 feet AGL
Present Weather: no significant weather observed at this time
KLEE 171953Z 16005KT 10SM CLR 23/11 A3013 RMK AO2 SLP202 T02280111

Conditions at: KLEE observed 17 November 2018  18:53 UTC
Temperature: 22.2°C (72°F)
Dewpoint: 11.7°C (53°F) [RH = 51%]
Pressure (altimeter): 30.13 inches Hg (1020.4 mb)
[Sea-level pressure: 1020.3 mb]
Winds: from the ESE (120 degrees) at 6 MPH (5 knots; 2.6 m/s)
Visibility: 10 or more miles (16+ km)
Ceiling: at least 12,000 feet AGL
Clouds: sky clear below 12,000 feet AGL
Present Weather: no significant weather observed at this time
KLEE 171853Z 12005KT 10SM CLR 22/12 A3013 RMK AO2 SLP203 T02220117

Conditions at: KLEE observed 17 November 2018  17:53 UTC
Temperature: 21.1°C (70°F)
Dewpoint: 11.1°C (52°F) [RH = 53%]
Pressure (altimeter): 30.15 inches Hg (1021.1 mb)
[Sea-level pressure: 1020.9 mb]
Winds: variable direction winds at 6 MPH (5 knots; 2.6 m/s)
Visibility: 10 or more miles (16+ km)
Ceiling: at least 12,000 feet AGL
Clouds: sky clear below 12,000 feet AGL
Present Weather: no significant weather observed at this time
KLEE 171753Z VRB05KT 10SM CLR 21/11 A3015 RMK AO2 SLP209 T02110111 10211 20083 58026

Conditions at: KLEE observed 17 November 2018  16:53 UTC
Temperature: 20.0°C (68°F)
Dewpoint: 10.6°C (51°F) [RH = 55%]
Pressure (altimeter): 30.19 inches Hg (1022.4 mb)
[Sea-level pressure: 1022.3 mb]
Winds: from the ENE (60 degrees) at 8 MPH (7 knots; 3.6 m/s)
Visibility: 10 or more miles (16+ km)
Ceiling: at least 12,000 feet AGL
Clouds: sky clear below 12,000 feet AGL
Present Weather: no significant weather observed at this time
KLEE 171653Z 06007KT 10SM CLR 20/11 A3019 RMK AO2 SLP223 T02000106

Conditions at: KLEE observed 17 November 2018  15:53 UTC
Temperature: 18.3°C (65°F)
Dewpoint: 10.0°C (50°F) [RH = 58%]
Pressure (altimeter): 30.21 inches Hg (1023.1 mb)
[Sea-level pressure: 1022.8 mb]
Winds: from the NE (40 degrees) at 7 MPH (6 knots; 3.1 m/s)
Visibility: 10 or more miles (16+ km)
Ceiling: at least 12,000 feet AGL
Clouds: sky clear below 12,000 feet AGL
Present Weather: no significant weather observed at this time
KLEE 171553Z 04006KT 10SM CLR 18/10 A3021 RMK AO2 SLP228 T01830100

Conditions at: KLEE observed 17 November 2018  14:53 UTC
Temperature: 15.6°C (60°F)
Dewpoint: 7.8°C (46°F) [RH = 60%]
Pressure (altimeter): 30.23 inches Hg (1023.8 mb)
[Sea-level pressure: 1023.5 mb]
Winds: from the NNE (20 degrees) at 8 MPH (7 knots; 3.6 m/s)
Visibility: 10 or more miles (16+ km)
Ceiling: at least 12,000 feet AGL
Clouds: sky clear below 12,000 feet AGL
Present Weather: no significant weather observed at this time
KLEE 171453Z 02007KT 10SM CLR 16/08 A3023 RMK AO2 SLP235 T01560078 50007

Conditions at: KLEE observed 17 November 2018  13:53 UTC
Temperature: 12.8°C (55°F)
Dewpoint: 6.1°C (43°F) [RH = 64%]
Pressure (altimeter): 30.24 inches Hg (1024.1 mb)
[Sea-level pressure: 1023.9 mb]
Winds: from the N (360 degrees) at 9 MPH (8 knots; 4.2 m/s)
Visibility: 10 or more miles (16+ km)
Ceiling: at least 12,000 feet AGL
Clouds: sky clear below 12,000 feet AGL
Present Weather: no significant weather observed at this time
KLEE 171353Z 36008KT 10SM CLR 13/06 A3024 RMK AO2 SLP239 T01280061

Conditions at: KLEE observed 17 November 2018  12:53 UTC
Temperature: 9.4°C (49°F)
Dewpoint: 5.0°C (41°F) [RH = 74%]
Pressure (altimeter): 30.22 inches Hg (1023.5 mb)
[Sea-level pressure: 1023.3 mb]
Winds: from the N (360 degrees) at 9 MPH (8 knots; 4.2 m/s)
Visibility: 10 or more miles (16+ km)
Ceiling: at least 12,000 feet AGL
Clouds: sky clear below 12,000 feet AGL
Present Weather: no significant weather observed at this time
KLEE 171253Z 36008KT 10SM CLR 09/05 A3022 RMK AO2 SLP233 T00940050

Conditions at: KLEE observed 17 November 2018  11:53 UTC
Temperature: 8.3°C (47°F)
Dewpoint: 5.0°C (41°F) [RH = 80%]
Pressure (altimeter): 30.21 inches Hg (1023.1 mb)
[Sea-level pressure: 1022.9 mb]
Winds: from the N (10 degrees) at 10 MPH (9 knots; 4.7 m/s)
Visibility: 10 or more miles (16+ km)
Ceiling: at least 12,000 feet AGL
Clouds: sky clear below 12,000 feet AGL
Present Weather: no significant weather observed at this time
KLEE 171153Z 01009KT 10SM CLR 08/05 A3021 RMK AO2 SLP229 T00830050 10089 20078 53013